Time;durP1;ratioP1;P1;durP2;ratioP2;P2;SDS_P1;SDS_P2;PMS_P1;PMS_P2;Temp;Humidity;BMP_temperature;BMP_pressure;BME280_temperature;BME280_humidity;BME280_pressure;Samples;Min_cycle;Max_cycle;Signal;HPM_P1;HPM_P2
2023/07/13 00:02:21;;;;;;;1.60;1.23;;;;;;;;;;5072874;28;20048;-36
2023/07/13 00:04:49;;;;;;;1.55;1.10;;;23.20;59.30;;;;;;5072955;28;20053;-36
2023/07/13 00:07:16;;;;;;;2.65;1.20;;;23.10;67.30;;;;;;5073020;28;20535;-32
2023/07/13 00:09:42;;;;;;;2.40;1.40;;;23.10;74.60;;;;;;5073881;28;20044;-31
2023/07/13 00:12:23;;;;;;;2.17;1.17;;;23.20;59.30;;;;;;5072816;28;20044;-35
2023/07/13 00:14:50;;;;;;;2.50;1.33;;;23.00;75.30;;;;;;5072918;28;20048;-31
2023/07/13 00:17:17;;;;;;;2.95;1.20;;;23.70;75.90;;;;;;5072872;28;20052;-30
2023/07/13 00:19:44;;;;;;;1.77;1.20;;;22.30;65.50;;;;;;5075784;28;20036;-32
2023/07/13 00:22:12;;;;;;;3.22;1.40;;;23.20;65.00;;;;;;5091502;28;20052;-35
2023/07/13 00:24:41;;;;;;;1.60;1.13;;;23.50;75.20;;;;;;5093183;28;20048;-30
2023/07/13 00:27:08;;;;;;;1.42;1.10;;;;;;;;;;5077334;28;20489;-35
2023/07/13 00:29:35;;;;;;;2.38;1.30;;;22.90;60.70;;;;;;5072529;28;20056;-31
2023/07/13 00:32:03;;;;;;;1.38;1.10;;;23.20;59.40;;;;;;5072387;28;20490;-34
2023/07/13 00:34:30;;;;;;;3.95;1.30;;;;;;;;;;5071871;28;20498;-36
2023/07/13 00:36:57;;;;;;;2.10;1.20;;;22.90;74.90;;;;;;5081134;28;20578;-32
2023/07/13 00:39:25;;;;;;;1.95;1.33;;;23.10;59.30;;;;;;5092571;28;20501;-35
2023/07/13 00:41:53;;;;;;;1.50;1.20;;;;;;;;;;5088060;28;20106;-35
2023/07/13 00:44:20;;;;;;;2.17;1.40;;;23.10;59.30;;;;;;5081094;28;20126;-31
2023/07/13 00:46:47;;;;;;;0.95;0.93;;;23.50;75.00;;;;;;5092497;28;20055;-32
2023/07/13 00:49:18;;;;;;;1.55;1.10;;;23.40;75.00;;;;;;5092577;28;20052;-31
2023/07/13 00:51:46;;;;;;;2.25;1.25;;;23.10;71.20;;;;;;5092256;28;20451;-32
2023/07/13 00:54:20;;;;;;;2.33;1.38;;;22.60;59.10;;;;;;5092260;28;20086;-33
2023/07/13 00:56:49;;;;;;;1.98;1.02;;;23.10;62.10;;;;;;5092372;28;20098;-33
2023/07/13 00:59:16;;;;;;;3.25;1.30;;;23.10;74.80;;;;;;5078587;28;20044;-31
2023/07/13 01:01:43;;;;;;;1.83;1.08;;;23.60;67.00;;;;;;5071975;28;20056;-33
2023/07/13 01:04:10;;;;;;;2.25;1.20;;;22.70;75.40;;;;;;5071983;28;20052;-31
2023/07/13 01:06:37;;;;;;;2.65;1.20;;;;;;;;;;5072168;28;20052;-35
2023/07/13 01:09:05;;;;;;;1.85;1.00;;;23.20;74.80;;;;;;5071859;28;20132;-31
2023/07/13 01:11:32;;;;;;;2.22;1.30;;;23.10;74.60;;;;;;5071748;28;20504;-32
2023/07/13 01:14:01;;;;;;;2.03;1.10;;;22.60;66.80;;;;;;5072832;28;20051;-31
2023/07/13 01:16:29;;;;;;;2.53;1.10;;;23.10;66.50;;;;;;5078964;28;20048;-32
2023/07/13 01:18:58;;;;;;;2.08;1.25;;;;;;;;;;5091999;28;20059;-34
2023/07/13 01:21:27;;;;;;;2.40;1.27;;;22.50;75.50;;;;;;5091952;28;20052;-31
2023/07/13 01:23:54;;;;;;;2.10;1.25;;;;;;;;;;5091870;28;20048;-35
2023/07/13 01:26:21;;;;;;;3.55;1.20;;;23.20;63.30;;;;;;5091785;28;20496;-32
2023/07/13 01:28:48;;;;;;;2.63;1.23;;;;;;;;;;5091560;28;20040;-36
2023/07/13 01:31:15;;;;;;;2.20;1.25;;;24.10;75.80;;;;;;5090206;28;20052;-31
2023/07/13 01:33:42;;;;;;;2.08;1.45;;;23.30;75.10;;;;;;5091539;28;20101;-31
2023/07/13 01:36:09;;;;;;;1.02;0.98;;;23.10;75.40;;;;;;5091404;28;20048;-31
2023/07/13 01:38:37;;;;;;;1.88;1.10;;;23.20;76.00;;;;;;5091884;28;20048;-33
2023/07/13 01:41:04;;;;;;;2.22;1.10;;;23.50;68.30;;;;;;5091820;28;20048;-32
2023/07/13 01:43:32;;;;;;;1.75;1.20;;;22.60;74.80;;;;;;5091613;28;20059;-30
2023/07/13 01:45:59;;;;;;;2.63;1.10;;;;;;;;;;5091263;28;20048;-35
2023/07/13 01:48:26;;;;;;;1.77;1.20;;;23.80;75.40;;;;;;5072338;28;20106;-31
2023/07/13 01:50:53;;;;;;;2.67;1.10;;;23.30;75.50;;;;;;5071558;28;20101;-31
2023/07/13 01:53:20;;;;;;;2.47;1.20;;;23.60;75.50;;;;;;5071075;28;20556;-31
2023/07/13 01:55:48;;;;;;;2.47;1.25;;;23.00;59.60;;;;;;5071311;28;20079;-35
2023/07/13 01:58:15;;;;;;;2.60;1.30;;;;;;;;;;5071372;28;20095;-33
2023/07/13 02:00:42;;;;;;;2.70;1.50;;;23.00;76.00;;;;;;5071581;28;20098;-31
2023/07/13 02:03:09;;;;;;;1.95;1.20;;;;;;;;;;5072227;28;20103;-35
2023/07/13 02:05:36;;;;;;;3.17;1.30;;;;;;;;;;5071498;28;20056;-31
2023/07/13 02:08:03;;;;;;;2.35;1.30;;;23.10;64.90;;;;;;5071374;28;20052;-32
2023/07/13 02:10:30;;;;;;;1.27;1.02;;;23.40;75.30;;;;;;5071180;28;20106;-32
2023/07/13 02:12:59;;;;;;;2.60;1.30;;;22.90;59.50;;;;;;5080118;28;20114;-35
2023/07/13 02:15:26;;;;;;;2.67;1.40;;;22.50;66.00;;;;;;5087514;28;20047;-32
2023/07/13 02:17:52;;;;;;;3.42;1.40;;;22.20;65.30;;;;;;5076929;28;20109;-32
2023/07/13 02:20:19;;;;;;;2.85;1.35;;;23.00;59.70;;;;;;5091439;28;20106;-34
2023/07/13 02:22:46;;;;;;;4.25;1.50;;;22.70;75.10;;;;;;5091341;28;20056;-31
2023/07/13 02:25:14;;;;;;;3.28;1.50;;;23.00;75.30;;;;;;5091340;28;20183;-31
2023/07/13 02:27:41;;;;;;;3.25;1.73;;;22.80;75.10;;;;;;5090981;28;20505;-33
2023/07/13 02:30:12;;;;;;;2.30;1.25;;;22.90;59.70;;;;;;5091371;28;20051;-36
2023/07/13 02:32:39;;;;;;;2.20;1.20;;;22.60;60.50;;;;;;5090319;28;20106;-31
2023/07/13 02:35:06;;;;;;;2.90;1.35;;;;;;;;;;5091357;28;20059;-35
2023/07/13 02:37:33;;;;;;;2.33;1.20;;;22.80;75.20;;;;;;5090520;28;20056;-30
2023/07/13 02:40:00;;;;;;;1.92;1.20;;;22.80;65.40;;;;;;5091358;28;20104;-32
2023/07/13 02:42:27;;;;;;;2.67;1.20;;;23.50;75.80;;;;;;5091243;28;20455;-31
2023/07/13 02:44:54;;;;;;;1.50;1.08;;;22.10;74.60;;;;;;5091562;28;20056;-31
2023/07/13 02:47:22;;;;;;;2.47;1.27;;;22.60;74.80;;;;;;5083261;28;20119;-31
2023/07/13 02:49:49;;;;;;;3.17;1.23;;;23.50;75.30;;;;;;5074240;28;20052;-31
2023/07/13 02:52:16;;;;;;;3.55;1.50;;;23.00;75.20;;;;;;5074342;28;20045;-30
2023/07/13 02:54:43;;;;;;;3.92;1.35;;;22.60;68.60;;;;;;5074495;28;20052;-34
2023/07/13 02:57:09;;;;;;;1.80;1.20;;;23.90;76.00;;;;;;5074491;28;20075;-31
2023/07/13 02:59:37;;;;;;;2.92;1.40;;;;;;;;;;5074509;28;20044;-35
2023/07/13 03:02:04;;;;;;;2.85;1.30;;;23.10;59.90;;;;;;5074208;28;20106;-34
2023/07/13 03:04:32;;;;;;;3.22;1.30;;;23.20;60.00;;;;;;5073873;28;20052;-36
2023/07/13 03:06:59;;;;;;;3.20;1.42;;;23.80;63.00;;;;;;5074379;28;20106;-33
2023/07/13 03:09:26;;;;;;;3.47;1.10;;;23.00;75.60;;;;;;5085137;28;20043;-31
2023/07/13 03:11:54;;;;;;;2.85;1.38;;;23.20;75.60;;;;;;5094130;28;20044;-31
2023/07/13 03:14:21;;;;;;;3.20;1.30;;;;;;;;;;5094149;28;20493;-34
2023/07/13 03:16:48;;;;;;;2.25;1.30;;;22.80;76.00;;;;;;5085280;28;20559;-31
2023/07/13 03:19:15;;;;;;;4.00;1.67;;;;;;;;;;5087723;28;20089;-35
2023/07/13 03:21:43;;;;;;;2.17;1.50;;;21.90;74.90;;;;;;5094176;28;20059;-32
2023/07/13 03:24:10;;;;;;;3.00;1.35;;;22.00;73.40;;;;;;5093854;28;20497;-31
2023/07/13 03:26:37;;;;;;;4.30;2.10;;;;;;;;;;5094111;28;20097;-31
2023/07/13 03:29:05;;;;;;;3.60;1.73;;;23.10;75.60;;;;;;5093920;28;20052;-31
2023/07/13 03:31:38;;;;;;;2.75;1.27;;;22.80;59.90;;;;;;5093943;28;20454;-35
2023/07/13 03:34:05;;;;;;;2.78;1.42;;;22.60;75.00;;;;;;5082542;28;20117;-31
2023/07/13 03:36:33;;;;;;;3.72;1.38;;;22.80;59.90;;;;;;5093332;28;20458;-34
2023/07/13 03:39:02;;;;;;;4.18;1.48;;;22.50;71.50;;;;;;5093811;28;20054;-32
2023/07/13 03:41:30;;;;;;;2.10;1.20;;;22.70;75.20;;;;;;5093803;28;20051;-31
2023/07/13 03:43:57;;;;;;;1.92;1.20;;;22.60;75.50;;;;;;5093243;28;20408;-32
2023/07/13 03:46:24;;;;;;;3.15;1.35;;;;;;;;;;5093712;28;20055;-33
2023/07/13 03:48:51;;;;;;;2.63;1.52;;;23.00;62.00;;;;;;5093210;28;20089;-31
2023/07/13 03:51:18;;;;;;;2.97;1.30;;;;;;;;;;5093675;28;20089;-31
2023/07/13 03:53:46;;;;;;;4.07;1.33;;;22.90;75.40;;;;;;5093561;28;20052;-31
2023/07/13 03:56:15;;;;;;;2.53;1.15;;;22.70;60.00;;;;;;5092711;28;20048;-32
2023/07/13 03:58:42;;;;;;;4.45;1.42;;;22.60;75.30;;;;;;5093099;28;20130;-31
2023/07/13 04:01:09;;;;;;;6.10;1.42;;;22.80;69.00;;;;;;5093540;28;20048;-31
2023/07/13 04:03:37;;;;;;;1.90;1.17;;;22.70;60.00;;;;;;5089949;28;20113;-36
2023/07/13 04:06:04;;;;;;;3.83;1.60;;;22.00;59.60;;;;;;5087176;28;20509;-31
2023/07/13 04:08:33;;;;;;;3.05;1.10;;;22.00;75.00;;;;;;5093211;28;20493;-31
2023/07/13 04:11:00;;;;;;;3.90;1.50;;;22.60;68.20;;;;;;5093274;28;20047;-31
2023/07/13 04:13:29;;;;;;;3.25;1.42;;;22.50;76.10;;;;;;5092810;28;20493;-31
2023/07/13 04:15:56;;;;;;;4.55;1.50;;;22.00;75.10;;;;;;5092779;28;20451;-30
2023/07/13 04:18:23;;;;;;;3.67;1.40;;;22.80;76.20;;;;;;5093159;28;20083;-31
2023/07/13 04:20:50;;;;;;;3.60;1.35;;;23.90;73.70;;;;;;5084764;28;20105;-34
2023/07/13 04:23:17;;;;;;;4.63;1.58;;;;;;;;;;5090984;28;20574;-36
2023/07/13 04:25:45;;;;;;;3.45;1.33;;;22.90;75.40;;;;;;5092836;28;20393;-31
2023/07/13 04:28:12;;;;;;;4.05;1.48;;;23.70;76.10;;;;;;5092965;28;20140;-32
2023/07/13 04:30:40;;;;;;;2.72;1.30;;;22.30;75.30;;;;;;5093004;28;20044;-31
2023/07/13 04:33:08;;;;;;;3.25;1.30;;;22.50;75.40;;;;;;5092751;28;20082;-31
2023/07/13 04:35:35;;;;;;;5.03;1.38;;;22.40;75.30;;;;;;5088566;28;20051;-31
2023/07/13 04:38:02;;;;;;;2.60;1.23;;;23.30;74.20;;;;;;5081430;28;20109;-31
2023/07/13 04:40:29;;;;;;;5.28;1.50;;;22.80;75.50;;;;;;5077914;28;20044;-32
2023/07/13 04:42:56;;;;;;;2.97;1.33;;;;;;;;;;5072320;28;20052;-34
2023/07/13 04:45:23;;;;;;;3.50;1.50;;;22.50;75.80;;;;;;5090283;28;20052;-31
2023/07/13 04:47:52;;;;;;;4.82;1.55;;;22.60;75.70;;;;;;5092791;28;20097;-32
2023/07/13 04:50:22;;;;;;;2.80;1.40;;;22.50;75.50;;;;;;5092631;28;20044;-31
2023/07/13 04:52:50;;;;;;;3.58;1.40;;;22.60;76.50;;;;;;5081325;28;20063;-31
2023/07/13 04:55:17;;;;;;;3.72;1.50;;;23.60;76.20;;;;;;5072556;28;20048;-30
2023/07/13 04:57:44;;;;;;;3.95;1.60;;;;;;;;;;5072036;28;20110;-35
2023/07/13 05:00:12;;;;;;;5.07;1.52;;;22.00;75.10;;;;;;5072439;28;20048;-31
2023/07/13 05:02:39;;;;;;;3.67;1.95;;;23.00;76.40;;;;;;5089127;28;20055;-31
2023/07/13 05:05:08;;;;;;;3.72;1.42;;;22.60;60.10;;;;;;5092441;28;20105;-32
2023/07/13 05:07:35;;;;;;;3.60;1.58;;;22.60;75.50;;;;;;5091349;28;20561;-31
2023/07/13 05:10:03;;;;;;;4.20;1.40;;;;;;;;;;5071976;28;20853;-35
2023/07/13 05:12:30;;;;;;;2.88;1.60;;;22.50;75.80;;;;;;5072158;28;20942;-31
2023/07/13 05:14:57;;;;;;;4.82;1.70;;;22.50;75.20;;;;;;5071892;28;20546;-32
2023/07/13 05:17:24;;;;;;;4.10;1.70;;;;;;;;;;5072089;28;20049;-33
2023/07/13 05:19:51;;;;;;;4.00;1.73;;;22.50;67.20;;;;;;5071835;28;20101;-34
2023/07/13 05:22:19;;;;;;;4.72;1.63;;;21.90;75.10;;;;;;5071816;28;20105;-31
2023/07/13 05:24:46;;;;;;;4.80;1.90;;;22.60;75.60;;;;;;5088284;28;20048;-33
2023/07/13 05:27:13;;;;;;;2.60;1.42;;;;;;;;;;5092270;28;20048;-34
2023/07/13 05:29:40;;;;;;;3.38;1.60;;;21.70;75.20;;;;;;5092139;28;20058;-31
2023/07/13 05:32:08;;;;;;;4.80;1.70;;;;;;;;;;5092217;28;20386;-35
2023/07/13 05:34:34;;;;;;;3.17;1.50;;;22.70;76.30;;;;;;5092139;28;20440;-31
2023/07/13 05:37:02;;;;;;;4.18;1.52;;;;;;;;;;5091215;28;20043;-34
2023/07/13 05:39:30;;;;;;;5.03;1.48;;;22.50;76.20;;;;;;5092194;28;20451;-31
2023/07/13 05:41:57;;;;;;;3.13;1.40;;;22.90;75.80;;;;;;5087693;28;20048;-31
2023/07/13 05:44:24;;;;;;;4.88;1.75;;;;;;;;;;5091566;28;20501;-36
2023/07/13 05:46:50;;;;;;;4.45;1.80;;;21.60;75.00;;;;;;5091580;28;20052;-31
2023/07/13 05:49:18;;;;;;;3.53;1.80;;;;;;;;;;5091752;28;20048;-31
2023/07/13 05:51:44;;;;;;;5.20;1.70;;;22.50;75.90;;;;;;5078683;28;20090;-31
2023/07/13 05:54:11;;;;;;;3.90;1.50;;;22.60;76.40;;;;;;5071413;28;20045;-31
2023/07/13 05:56:39;;;;;;;2.67;1.40;;;22.20;69.00;;;;;;5071800;28;20114;-32
2023/07/13 05:59:06;;;;;;;6.30;2.05;;;21.80;68.60;;;;;;5090216;28;20056;-32
2023/07/13 06:01:33;;;;;;;3.10;1.60;;;22.30;76.10;;;;;;5091695;28;20455;-32
2023/07/13 06:04:00;;;;;;;4.03;1.83;;;;;;;;;;5090795;28;20094;-35
2023/07/13 06:06:27;;;;;;;5.00;1.70;;;;;;;;;;5091232;28;20051;-34
2023/07/13 06:08:55;;;;;;;3.65;1.60;;;;;;;;;;5091497;28;20498;-34
2023/07/13 06:11:22;;;;;;;4.10;1.60;;;22.50;60.30;;;;;;5090410;28;20036;-33
2023/07/13 06:13:51;;;;;;;7.20;2.17;;;22.40;64.80;;;;;;5079271;28;20522;-33
2023/07/13 06:16:18;;;;;;;4.07;1.67;;;22.30;76.40;;;;;;5071188;28;20114;-31
2023/07/13 06:18:45;;;;;;;3.80;1.60;;;;;;;;;;5070553;28;20102;-35
2023/07/13 06:21:13;;;;;;;4.15;1.63;;;22.70;76.00;;;;;;5085028;28;20493;-31
2023/07/13 06:23:39;;;;;;;4.43;1.67;;;22.20;75.20;;;;;;5095192;28;20500;-32
2023/07/13 06:26:07;;;;;;;3.42;1.63;;;22.50;69.20;;;;;;5095007;28;20048;-31
2023/07/13 06:28:34;;;;;;;4.47;1.60;;;;;;;;;;5094849;28;20116;-32
2023/07/13 06:31:02;;;;;;;3.65;1.50;;;22.50;60.30;;;;;;5094801;28;20085;-36
2023/07/13 06:33:29;;;;;;;3.28;1.65;;;22.50;60.40;;;;;;5095007;28;20048;-33
2023/07/13 06:35:56;;;;;;;3.42;1.50;;;22.40;75.00;;;;;;5093739;28;20389;-31
2023/07/13 06:38:23;;;;;;;6.75;1.50;;;;;;;;;;5086578;28;20044;-34
2023/07/13 06:40:50;;;;;;;4.35;1.40;;;21.80;75.90;;;;;;5074693;28;20082;-30
2023/07/13 06:43:18;;;;;;;2.95;1.40;;;;;;;;;;5074935;28;20052;-36
2023/07/13 06:45:47;;;;;;;2.97;1.40;;;22.70;76.80;;;;;;5094146;28;20070;-32
2023/07/13 06:48:15;;;;;;;3.08;1.50;;;22.80;65.50;;;;;;5095016;28;20048;-32
2023/07/13 06:50:42;;;;;;;3.10;1.45;;;22.30;75.80;;;;;;5094899;28;20055;-31
2023/07/13 06:53:09;;;;;;;2.95;1.50;;;23.00;76.60;;;;;;5086411;28;20048;-32
2023/07/13 06:55:36;;;;;;;2.80;1.50;;;22.10;70.10;;;;;;5094220;28;20097;-32
2023/07/13 06:58:03;;;;;;;3.45;1.40;;;22.70;76.10;;;;;;5094639;28;20178;-31
2023/07/13 07:00:30;;;;;;;4.55;1.42;;;;;;;;;;5094766;28;20542;-35
2023/07/13 07:02:57;;;;;;;3.60;1.63;;;22.40;76.00;;;;;;5094335;28;20047;-30
2023/07/13 07:05:25;;;;;;;4.47;1.83;;;21.70;76.00;;;;;;5094662;28;20130;-32
2023/07/13 07:07:52;;;;;;;4.22;1.58;;;;;;;;;;5078147;28;20056;-36
2023/07/13 07:10:19;;;;;;;4.75;1.73;;;21.60;66.00;;;;;;5084936;28;20047;-31
2023/07/13 07:12:47;;;;;;;4.40;1.50;;;;;;;;;;5075080;28;20490;-35
2023/07/13 07:15:13;;;;;;;4.88;1.77;;;22.20;76.40;;;;;;5074373;28;20071;-31
2023/07/13 07:17:41;;;;;;;2.60;1.60;;;;;;;;;;5074381;28;20049;-34
2023/07/13 07:20:08;;;;;;;4.10;1.50;;;22.60;76.50;;;;;;5077878;28;20044;-31
2023/07/13 07:22:37;;;;;;;4.03;1.38;;;22.60;60.60;;;;;;5087923;28;20113;-32
2023/07/13 07:25:04;;;;;;;5.20;1.80;;;21.90;76.60;;;;;;5093262;28;20101;-31
2023/07/13 07:27:31;;;;;;;3.55;1.50;;;23.00;64.90;;;;;;5093611;28;20506;-32
2023/07/13 07:29:58;;;;;;;3.50;1.50;;;22.30;76.00;;;;;;5094240;28;20048;-31
2023/07/13 07:32:25;;;;;;;2.90;1.30;;;22.60;62.90;;;;;;5093382;28;20062;-33
2023/07/13 07:34:52;;;;;;;2.97;1.48;;;22.70;77.00;;;;;;5081611;28;20105;-32
2023/07/13 07:37:19;;;;;;;5.50;1.60;;;;;;;;;;5079325;28;20044;-37
2023/07/13 07:39:47;;;;;;;4.28;1.70;;;23.60;76.60;;;;;;5082395;28;20105;-37
2023/07/13 07:42:14;;;;;;;3.45;1.52;;;21.80;75.70;;;;;;5081760;28;20048;-40
2023/07/13 07:44:41;;;;;;;2.90;1.38;;;22.40;76.80;;;;;;5082779;28;20044;-39
2023/07/13 07:47:08;;;;;;;2.45;1.52;;;22.90;76.90;;;;;;5082244;28;20078;-40
2023/07/13 07:49:35;;;;;;;5.40;1.58;;;22.90;76.80;;;;;;5084311;28;20064;-40
2023/07/13 07:52:02;;;;;;;5.70;1.77;;;22.00;71.20;;;;;;5072847;28;20048;-36
2023/07/13 07:54:29;;;;;;;4.13;1.67;;;23.20;76.30;;;;;;5073130;28;20094;-40
2023/07/13 07:56:57;;;;;;;2.95;1.60;;;22.80;60.60;;;;;;5072773;28;20049;-37
2023/07/13 07:59:24;;;;;;;3.30;1.48;;;;;;;;;;5079808;28;20056;-37
2023/07/13 08:01:51;;;;;;;4.00;1.55;;;22.50;76.00;;;;;;5085339;28;20041;-39
2023/07/13 08:04:18;;;;;;;3.13;1.50;;;22.80;61.40;;;;;;5084419;28;20113;-36
2023/07/13 08:06:45;;;;;;;3.88;1.60;;;23.10;76.60;;;;;;5082256;28;20044;-41
2023/07/13 08:09:12;;;;;;;5.60;2.20;;;23.50;76.50;;;;;;5082508;28;20530;-40
2023/07/13 08:11:38;;;;;;;3.85;1.40;;;23.00;75.80;;;;;;5083761;28;20040;-40
2023/07/13 08:14:07;;;;;;;3.35;1.20;;;22.30;76.90;;;;;;5078679;28;20053;-40
2023/07/13 08:16:33;;;;;;;3.80;1.50;;;23.10;76.50;;;;;;5080356;28;20040;-40
2023/07/13 08:19:00;;;;;;;2.47;1.40;;;22.50;62.40;;;;;;5080640;28;20048;-36
2023/07/13 08:21:28;;;;;;;2.78;1.42;;;23.70;76.90;;;;;;5082120;28;20114;-39
2023/07/13 08:23:55;;;;;;;7.70;1.80;;;23.60;67.90;;;;;;5079751;28;20089;-37
2023/07/13 08:26:22;;;;;;;5.82;1.83;;;22.50;76.20;;;;;;5080773;28;20098;-40
2023/07/13 08:28:49;;;;;;;4.85;1.55;;;;;;;;;;5085226;28;20055;-37
2023/07/13 08:31:17;;;;;;;2.10;1.27;;;23.00;77.20;;;;;;5092430;28;20044;-41
2023/07/13 08:33:44;;;;;;;6.55;1.83;;;22.70;77.10;;;;;;5092746;28;20117;-40
2023/07/13 08:36:11;;;;;;;3.85;1.60;;;;;;;;;;5091983;28;20089;-37
2023/07/13 08:38:38;;;;;;;4.30;1.58;;;23.70;67.50;;;;;;5092857;28;20172;-40
2023/07/13 08:41:11;;;;;;;4.53;1.58;;;22.80;60.80;;;;;;5092036;28;20101;-37
2023/07/13 08:43:38;;;;;;;5.43;1.50;;;23.10;75.30;;;;;;5091586;28;20553;-40
2023/07/13 08:46:08;;;;;;;2.83;1.52;;;22.30;61.80;;;;;;5092284;28;20056;-38
2023/07/13 08:48:39;;;;;;;3.00;1.58;;;22.70;67.40;;;;;;5092827;28;20109;-39
2023/07/13 08:51:12;;;;;;;4.18;1.60;;;22.70;76.80;;;;;;5092514;28;20048;-37
2023/07/13 08:53:40;;;;;;;2.28;1.67;;;21.90;76.60;;;;;;5092446;28;20105;-40
2023/07/13 08:56:10;;;;;;;3.08;1.38;;;22.80;61.00;;;;;;5092010;28;20070;-36
2023/07/13 08:58:37;;;;;;;3.22;1.70;;;22.50;75.50;;;;;;5073248;28;20056;-40
2023/07/13 09:01:10;;;;;;;3.03;1.58;;;23.60;74.40;;;;;;5072299;28;20056;-40
2023/07/13 09:03:41;;;;;;;3.08;1.40;;;22.70;61.00;;;;;;5087376;28;20429;-38
2023/07/13 09:06:08;;;;;;;3.38;1.70;;;23.30;73.70;;;;;;5092057;28;20497;-38
2023/07/13 09:08:42;;;;;;;2.90;1.42;;;22.70;61.10;;;;;;5092283;28;20081;-41
2023/07/13 09:11:15;;;;;;;2.97;1.42;;;22.70;61.20;;;;;;5091934;28;20044;-40
2023/07/13 09:13:51;;;;;;;3.28;1.50;;;22.70;61.20;;;;;;5079818;28;20052;-40
2023/07/13 09:16:18;;;;;;;3.67;1.50;;;;;;;;;;5072023;28;20052;-37
2023/07/13 09:18:47;;;;;;;2.85;1.60;;;23.00;77.00;;;;;;5071806;28;20417;-40
2023/07/13 09:21:16;;;;;;;2.35;1.42;;;22.70;61.20;;;;;;5071831;28;20045;-36
2023/07/13 09:23:43;;;;;;;3.60;1.33;;;23.70;77.70;;;;;;5071185;28;20082;-40
2023/07/13 09:26:12;;;;;;;3.17;1.60;;;22.40;76.90;;;;;;5071748;28;20645;-41
2023/07/13 09:28:41;;;;;;;4.32;1.35;;;22.40;77.50;;;;;;5074552;28;20085;-40
2023/07/13 09:31:12;;;;;;;1.63;1.27;;;21.80;76.50;;;;;;5091661;28;20127;-40
2023/07/13 09:33:39;;;;;;;2.05;1.27;;;22.90;68.00;;;;;;5091614;28;20044;-37
2023/07/13 09:36:18;;;;;;;2.65;1.25;;;22.60;77.10;;;;;;5091022;28;20101;-40
2023/07/13 09:38:45;;;;;;;3.47;1.40;;;22.60;66.60;;;;;;5092070;28;20190;-38
2023/07/13 09:41:20;;;;;;;2.60;1.50;;;23.10;76.80;;;;;;5091689;28;20056;-39
2023/07/13 09:44:12;;;;;;;2.70;1.50;;;22.50;64.40;;;;;;5091463;28;20094;-37
2023/07/13 09:46:40;;;;;;;2.60;1.25;;;22.50;60.80;;;;;;5090582;28;20044;-36
2023/07/13 09:49:07;;;;;;;2.83;1.45;;;;;;;;;;5092031;28;20102;-36
2023/07/13 09:51:35;;;;;;;2.83;1.30;;;22.20;61.70;;;;;;5091457;28;20089;-37
2023/07/13 09:54:03;;;;;;;2.67;1.30;;;23.70;77.20;;;;;;5075699;28;20052;-38
2023/07/13 09:56:30;;;;;;;2.65;1.50;;;22.90;71.70;;;;;;5083318;28;20048;-39
2023/07/13 09:58:57;;;;;;;2.03;1.30;;;23.00;76.90;;;;;;5085038;28;20048;-41
2023/07/13 10:01:34;;;;;;;5.90;1.70;;;22.60;60.90;;;;;;5082427;28;20040;-36
2023/07/13 10:04:02;;;;;;;2.67;1.50;;;;;;;;;;5085553;28;20102;-36
2023/07/13 10:06:28;;;;;;;2.40;1.38;;;22.60;76.50;;;;;;5083780;28;20048;-39
2023/07/13 10:08:57;;;;;;;4.00;1.50;;;22.40;76.50;;;;;;5085855;28;20052;-40
2023/07/13 10:11:25;;;;;;;2.78;1.40;;;22.90;67.90;;;;;;5085766;28;20047;-40
2023/07/13 10:13:53;;;;;;;1.88;1.20;;;22.60;76.60;;;;;;5082955;28;20497;-38
2023/07/13 10:16:20;;;;;;;2.63;1.27;;;22.40;72.50;;;;;;5084760;28;20044;-36
2023/07/13 10:18:49;;;;;;;3.05;1.42;;;22.50;63.70;;;;;;5085831;28;20105;-38
2023/07/13 10:21:18;;;;;;;2.72;1.50;;;22.60;61.10;;;;;;5088002;28;20390;-36
2023/07/13 10:23:46;;;;;;;2.58;1.42;;;22.30;77.30;;;;;;5087491;28;20543;-36
2023/07/13 10:26:17;;;;;;;3.95;1.50;;;22.90;71.80;;;;;;5079919;28;20044;-40
2023/07/13 10:28:46;;;;;;;4.13;1.40;;;22.50;61.90;;;;;;5082940;28;20067;-37
2023/07/13 10:31:14;;;;;;;3.05;1.30;;;21.70;76.20;;;;;;5074671;28;20045;-38
2023/07/13 10:33:41;;;;;;;2.97;1.50;;;23.10;77.40;;;;;;5073985;28;20052;-39
2023/07/13 10:36:14;;;;;;;3.05;1.60;;;22.70;61.20;;;;;;5074562;28;20422;-35
2023/07/13 10:38:41;;;;;;;4.63;1.52;;;;;;;;;;5080523;28;20558;-38
2023/07/13 10:41:11;;;;;;;2.25;1.40;;;22.70;61.20;;;;;;5075621;28;20517;-36
2023/07/13 10:43:42;;;;;;;3.05;1.50;;;22.60;65.50;;;;;;5087426;28;20455;-37
2023/07/13 10:46:11;;;;;;;2.42;1.50;;;22.40;64.30;;;;;;5080339;28;20048;-40
2023/07/13 10:48:38;;;;;;;2.58;1.30;;;22.50;76.20;;;;;;5082734;28;20456;-40
2023/07/13 10:51:06;;;;;;;2.50;1.40;;;22.50;76.20;;;;;;5094774;28;20051;-38
2023/07/13 10:53:34;;;;;;;2.17;1.20;;;22.90;60.90;;;;;;5093820;28;20485;-36
2023/07/13 10:56:02;;;;;;;5.45;1.30;;;22.90;60.70;;;;;;5080651;28;20134;-37
2023/07/13 10:58:33;;;;;;;1.92;1.20;;;24.10;61.30;;;;;;5081353;28;20052;-40
2023/07/13 11:01:07;;;;;;;1.48;1.10;;;22.80;76.10;;;;;;5081149;28;20090;-40
2023/07/13 11:03:36;;;;;;;2.03;1.23;;;24.20;68.70;;;;;;5074920;28;20177;-38
2023/07/13 11:06:09;;;;;;;2.35;1.50;;;23.30;76.00;;;;;;5079875;28;20127;-38
2023/07/13 11:08:38;;;;;;;1.63;1.27;;;23.10;60.30;;;;;;5078671;28;20054;-40
2023/07/13 11:11:09;;;;;;;2.90;1.30;;;23.20;70.90;;;;;;5092621;28;20135;-37
2023/07/13 11:13:57;;;;;;;2.58;1.25;;;23.20;60.20;;;;;;5094060;28;20051;-36
2023/07/13 11:16:45;;;;;;;3.83;1.20;;;23.30;76.10;;;;;;5094580;28;20132;-40
2023/07/13 11:19:49;;;;;;;5.38;1.50;;;24.40;65.10;;;;;;5094321;28;20414;-38
2023/07/13 11:22:26;;;;;;;3.35;1.40;;;23.30;60.10;;;;;;5094099;28;20048;-37
2023/07/13 11:25:01;;;;;;;2.08;1.50;;;24.00;76.80;;;;;;5089528;28;20093;-38
2023/07/13 11:27:39;;;;;;;2.10;1.35;;;23.40;60.10;;;;;;5076527;28;20122;-39
2023/07/13 11:30:19;;;;;;;2.13;1.33;;;23.40;60.10;;;;;;5079663;28;20558;-37
2023/07/13 11:32:47;;;;;;;2.25;1.30;;;23.30;60.10;;;;;;5093878;28;20046;-40
2023/07/13 11:35:14;;;;;;;1.50;1.20;;;23.10;75.60;;;;;;5093372;28;20397;-40
2023/07/13 11:37:41;;;;;;;2.97;1.40;;;23.50;63.70;;;;;;5093120;28;20093;-37
2023/07/13 11:40:14;;;;;;;3.17;1.30;;;23.30;60.10;;;;;;5093732;28;20060;-39
2023/07/13 11:42:41;;;;;;;4.13;1.40;;;;;;;;;;5093770;28;20051;-36
2023/07/13 11:45:19;;;;;;;5.30;1.50;;;22.10;75.10;;;;;;5093909;28;20052;-40
2023/07/13 11:47:47;;;;;;;2.42;1.20;;;22.40;75.60;;;;;;5094168;28;20052;-36
2023/07/13 11:50:19;;;;;;;1.52;1.30;;;23.10;75.90;;;;;;5093720;28;20048;-37
2023/07/13 11:52:46;;;;;;;2.50;1.50;;;22.80;76.10;;;;;;5093761;28;20160;-40
2023/07/13 11:55:15;;;;;;;3.50;1.40;;;23.20;59.90;;;;;;5076795;28;20443;-34
2023/07/13 11:57:44;;;;;;;3.50;1.52;;;23.40;76.50;;;;;;5064806;28;20444;-37
2023/07/13 12:00:14;;;;;;;2.25;1.35;;;24.50;60.90;;;;;;5054174;28;20097;-32
2023/07/13 12:02:43;;;;;;;1.92;1.30;;;23.20;69.90;;;;;;5077133;28;20072;-39
2023/07/13 12:05:13;;;;;;;1.73;1.30;;;23.10;59.90;;;;;;5091714;28;20128;-37
2023/07/13 12:07:40;;;;;;;4.50;1.42;;;23.10;75.60;;;;;;5093189;28;20130;-36
2023/07/13 12:10:16;;;;;;;6.78;1.40;;;23.30;75.90;;;;;;5093083;28;20570;-39
2023/07/13 12:12:48;;;;;;;2.10;1.25;;;23.10;60.30;;;;;;5093223;28;20120;-34
2023/07/13 12:15:15;;;;;;;3.47;1.20;;;22.60;76.50;;;;;;5092771;28;20052;-37
2023/07/13 12:17:42;;;;;;;1.65;1.30;;;23.20;61.60;;;;;;5091480;28;20075;-37
2023/07/13 12:20:18;;;;;;;1.50;1.08;;;23.70;76.80;;;;;;5092889;28;20052;-37
2023/07/13 12:22:47;;;;;;;1.50;1.20;;;23.10;60.80;;;;;;5090553;28;20581;-35
2023/07/13 12:25:14;;;;;;;2.58;1.52;;;23.50;68.00;;;;;;5092116;28;20062;-38
2023/07/13 12:27:42;;;;;;;2.28;1.30;;;23.30;76.40;;;;;;5092571;28;20044;-36
2023/07/13 12:30:25;;;;;;;2.45;1.38;;;23.10;60.70;;;;;;5080674;28;20105;-36
2023/07/13 12:32:59;;;;;;;2.25;1.20;;;23.10;60.70;;;;;;5077624;28;20052;-33
2023/07/13 12:35:29;;;;;;;2.83;1.40;;;23.10;60.60;;;;;;5089192;28;20048;-35
2023/07/13 12:37:57;;;;;;;2.95;1.40;;;;;;;;;;5090316;28;20047;-33
2023/07/13 12:40:34;;;;;;;2.15;1.50;;;22.60;75.70;;;;;;5045028;27;20757;-32
2023/07/13 12:43:04;;;;;;;2.38;1.20;;;;;;;;;;5044009;28;20049;-34
2023/07/13 12:45:31;;;;;;;2.72;1.77;;;24.20;65.70;;;;;;5044203;28;20049;-33
2023/07/13 12:47:59;;;;;;;4.22;1.40;;;22.60;75.40;;;;;;5044806;28;20106;-32
2023/07/13 12:50:30;;;;;;;1.83;1.30;;;23.20;76.20;;;;;;5045054;28;20052;-33
2023/07/13 12:53:01;;;;;;;2.63;1.30;;;23.00;69.50;;;;;;5044504;28;20157;-33
2023/07/13 12:55:32;;;;;;;2.95;1.30;;;22.70;75.60;;;;;;5044758;28;20130;-31
2023/07/13 12:58:00;;;;;;;1.67;1.30;;;23.10;60.40;;;;;;5044828;28;20053;-35
2023/07/13 13:00:28;;;;;;;2.30;1.38;;;23.10;73.90;;;;;;5044618;28;20045;-31
2023/07/13 13:02:57;;;;;;;2.45;1.50;;;23.20;60.50;;;;;;5042614;28;20724;-33
2023/07/13 13:05:24;;;;;;;2.17;1.40;;;;;;;;;;5044707;28;20057;-32
2023/07/13 13:07:52;;;;;;;1.65;1.20;;;;;;;;;;5044266;28;20081;-35
2023/07/13 13:10:21;;;;;;;3.47;1.60;;;22.70;66.20;;;;;;5044518;28;20128;-31
2023/07/13 13:12:47;;;;;;;2.20;1.27;;;23.40;68.40;;;;;;5044204;28;20049;-33